Time;durP1;ratioP1;P1;durP2;ratioP2;P2;SDS_P1;SDS_P2;PMS_P1;PMS_P2;Temp;Humidity;BMP_temperature;BMP_pressure;BME280_temperature;BME280_humidity;BME280_pressure;Samples;Min_cycle;Max_cycle;Signal;HPM_P1;HPM_P2
2022/01/22 00:01:16;;;;;;;44.47;16.63;;;0.40;99.90;;;;;;5053502;28;20100;-75
2022/01/22 00:03:42;;;;;;;46.15;17.67;;;0.40;99.90;;;;;;5053484;28;20147;-75
2022/01/22 00:06:08;;;;;;;60.40;18.67;;;0.40;99.90;;;;;;5053344;28;20478;-75
2022/01/22 00:08:34;;;;;;;48.45;16.88;;;0.40;99.90;;;;;;5053136;28;20478;-75
2022/01/22 00:11:00;;;;;;;39.80;15.82;;;0.40;99.90;;;;;;5052240;28;20032;-75
2022/01/22 00:16:16;;;;;;;37.97;15.48;;;0.50;99.90;;;;;;5051066;28;20040;-75
2022/01/22 00:18:41;;;;;;;46.17;17.98;;;0.40;99.90;;;;;;5053465;28;20038;-75
2022/01/22 00:21:07;;;;;;;35.83;13.15;;;0.50;99.90;;;;;;5052203;28;20024;-75
2022/01/22 00:23:33;;;;;;;27.08;10.65;;;0.50;99.90;;;;;;5052904;28;20108;-75
2022/01/22 00:25:59;;;;;;;39.15;13.70;;;0.50;99.90;;;;;;5051790;28;20025;-75
2022/01/22 00:28:25;;;;;;;34.78;13.05;;;0.50;99.90;;;;;;5053054;28;20021;-75
2022/01/22 00:30:51;;;;;;;31.33;10.80;;;0.50;99.90;;;;;;5052576;28;20026;-75
2022/01/22 00:33:17;;;;;;;26.98;10.02;;;0.50;99.90;;;;;;5052714;28;20029;-75
2022/01/22 00:35:46;;;;;;;27.05;9.93;;;0.50;99.90;;;;;;5052267;28;20057;-75
2022/01/22 00:38:13;;;;;;;25.63;8.20;;;0.50;99.90;;;;;;5049811;28;20021;-75
2022/01/22 00:40:39;;;;;;;21.60;8.32;;;0.50;99.90;;;;;;5052896;28;20025;-75
2022/01/22 00:43:05;;;;;;;20.33;6.93;;;0.50;99.90;;;;;;5052813;28;20021;-75
2022/01/22 00:45:31;;;;;;;31.10;11.02;;;0.50;99.90;;;;;;5052470;28;20044;-75
2022/01/22 00:47:56;;;;;;;30.38;11.07;;;0.60;99.90;;;;;;5052671;28;20128;-75
2022/01/22 00:50:24;;;;;;;25.35;7.90;;;0.60;99.90;;;;;;5053003;28;20108;-75
2022/01/22 00:52:50;;;;;;;27.27;9.70;;;0.60;99.90;;;;;;5052394;28;20067;-75
2022/01/22 00:55:17;;;;;;;24.38;8.77;;;0.60;99.90;;;;;;5052799;28;20025;-75
2022/01/22 00:57:43;;;;;;;29.83;9.70;;;0.60;99.90;;;;;;5050893;28;20033;-75
2022/01/22 01:00:11;;;;;;;32.45;10.57;;;0.50;99.90;;;;;;5052451;28;20029;-75
2022/01/22 01:02:37;;;;;;;39.92;11.38;;;0.60;99.90;;;;;;5052418;28;20045;-75
2022/01/22 01:05:08;;;;;;;45.42;14.32;;;0.60;99.90;;;;;;5052605;28;20510;-75
2022/01/22 01:07:34;;;;;;;33.20;11.27;;;0.60;99.90;;;;;;5052639;28;20028;-75
2022/01/22 01:10:00;;;;;;;31.13;11.05;;;0.60;99.90;;;;;;5052686;28;20075;-75
2022/01/22 01:12:26;;;;;;;25.75;8.65;;;0.60;99.90;;;;;;5052730;28;20357;-75
2022/01/22 01:15:13;;;;;;;30.65;9.85;;;0.50;99.90;;;;;;5052412;28;20100;-75
2022/01/22 01:34:10;;;;;;;17.58;7.00;;;0.50;99.90;;;;;;5052619;28;20024;-75
2022/01/22 01:36:37;;;;;;;23.13;8.38;;;0.50;99.90;;;;;;5053790;28;20455;-74
2022/01/22 01:39:06;;;;;;;24.05;8.00;;;0.50;99.90;;;;;;5055640;28;20104;-75
2022/01/22 01:44:06;;;;;;;26.23;8.45;;;0.50;99.90;;;;;;5055932;28;20029;-75
2022/01/22 01:46:33;;;;;;;23.10;8.50;;;0.40;99.90;;;;;;5055932;28;20250;-75
2022/01/22 01:49:02;;;;;;;28.60;10.10;;;0.40;99.90;;;;;;5052695;28;20067;-75
2022/01/22 01:51:29;;;;;;;30.35;9.85;;;0.40;99.90;;;;;;5055670;28;20025;-74
2022/01/22 01:59:16;;;;;;;28.80;8.95;;;0.30;99.90;;;;;;5054898;28;20040;-74
2022/01/22 02:01:43;;;;;;;39.25;11.35;;;0.30;99.90;;;;;;5054681;28;20017;-75
2022/01/22 02:04:11;;;;;;;30.08;9.20;;;0.20;99.90;;;;;;5055652;28;20468;-75
2022/01/22 02:06:37;;;;;;;28.50;9.63;;;0.20;99.90;;;;;;5055335;28;20037;-74
2022/01/22 02:09:09;;;;;;;21.35;6.93;;;0.10;99.90;;;;;;5055321;28;20033;-75
2022/01/22 02:11:36;;;;;;;23.50;8.25;;;0.10;99.90;;;;;;5055367;28;20025;-74
2022/01/22 02:14:09;;;;;;;28.90;9.77;;;0.10;99.90;;;;;;5052530;28;20108;-75
2022/01/22 02:24:54;;;;;;;26.95;10.02;;;0.10;99.90;;;;;;5047831;28;20086;-74
2022/01/22 02:27:21;;;;;;;24.42;9.23;;;0.10;99.90;;;;;;5054983;28;20415;-74
2022/01/22 02:29:47;;;;;;;27.25;9.93;;;0.10;99.90;;;;;;5054931;28;20017;-74
2022/01/22 02:38:22;;;;;;;24.73;9.50;;;0.00;99.90;;;;;;5011564;28;20485;-75
2022/01/22 02:40:49;;;;;;;43.88;10.30;;;-0.10;99.90;;;;;;5011733;28;20030;-74
2022/01/22 02:43:17;;;;;;;27.65;11.70;;;-0.10;99.90;;;;;;5011383;28;20037;-75
2022/01/22 02:45:45;;;;;;;25.00;9.32;;;-0.20;99.90;;;;;;5011186;28;20508;-74
2022/01/22 02:48:12;;;;;;;33.53;12.68;;;-0.20;99.90;;;;;;5011166;28;20092;-74
2022/01/22 02:50:38;;;;;;;44.15;17.95;;;-0.20;99.90;;;;;;5011401;28;20049;-74
2022/01/22 02:53:06;;;;;;;36.58;11.80;;;-0.20;99.90;;;;;;5011645;28;20053;-74
2022/01/22 02:55:32;;;;;;;37.97;12.48;;;-0.20;99.90;;;;;;5011658;28;20042;-74
2022/01/22 02:57:58;;;;;;;34.70;12.05;;;-0.20;99.90;;;;;;5008463;28;20022;-74
2022/01/22 03:00:25;;;;;;;32.05;11.35;;;-0.20;99.90;;;;;;5011504;28;20037;-74
2022/01/22 03:02:52;;;;;;;36.40;12.48;;;-0.20;99.90;;;;;;5011274;28;20045;-74
2022/01/22 03:05:19;;;;;;;29.85;9.50;;;-0.20;99.90;;;;;;5008627;28;20105;-75
2022/01/22 03:07:50;;;;;;;27.20;10.18;;;-0.20;99.90;;;;;;5011500;28;20461;-75
2022/01/22 03:10:20;;;;;;;25.30;9.10;;;-0.20;99.90;;;;;;5053230;28;20032;-74
2022/01/22 03:13:05;;;;;;;25.25;7.95;;;-0.20;99.90;;;;;;5053392;28;20025;-74
2022/01/22 03:18:09;;;;;;;28.00;9.50;;;-0.30;99.90;;;;;;5050745;28;20041;-74
2022/01/22 03:29:04;;;;;;;28.85;9.00;;;-0.50;99.90;;;;;;5051337;28;20024;-74
2022/01/22 03:31:30;;;;;;;25.95;8.88;;;-0.50;99.90;;;;;;5051700;28;20060;-74
2022/01/22 03:33:57;;;;;;;28.58;10.98;;;-0.50;99.90;;;;;;5052713;28;20032;-74
2022/01/22 03:36:24;;;;;;;25.35;9.68;;;-0.60;99.90;;;;;;5052744;28;20033;-75
2022/01/22 03:38:50;;;;;;;33.47;9.45;;;-0.60;99.90;;;;;;5052640;28;20025;-75
2022/01/22 03:41:16;;;;;;;27.65;10.07;;;-0.60;99.90;;;;;;5052596;28;20467;-75
2022/01/22 03:43:43;;;;;;;34.33;12.35;;;-0.60;99.90;;;;;;5052452;28;20096;-75
2022/01/22 03:46:09;;;;;;;40.05;13.50;;;-0.60;99.90;;;;;;5052352;28;20031;-75
2022/01/22 03:48:35;;;;;;;35.05;10.15;;;-0.60;99.90;;;;;;5052320;28;20074;-74
2022/01/22 03:51:02;;;;;;;30.40;10.18;;;-0.70;99.90;;;;;;5052259;28;20033;-75
2022/01/22 03:53:27;;;;;;;29.30;9.77;;;-0.60;99.90;;;;;;5052195;28;20111;-75
2022/01/22 03:56:02;;;;;;;22.73;8.40;;;-0.70;99.90;;;;;;5051536;28;20556;-75
2022/01/22 03:58:31;;;;;;;27.80;7.90;;;-0.70;99.90;;;;;;5052530;28;20032;-75
2022/01/22 04:03:51;;;;;;;25.10;8.57;;;-0.60;99.90;;;;;;5045663;28;20036;-75
2022/01/22 04:08:51;;;;;;;24.42;7.57;;;-0.60;99.90;;;;;;5052374;28;20033;-76
2022/01/22 04:11:16;;;;;;;16.67;6.07;;;-0.60;99.90;;;;;;5052713;28;20032;-76
2022/01/22 04:13:44;;;;;;;19.50;8.38;;;-0.60;99.90;;;;;;5052772;28;20025;-76
2022/01/22 04:16:13;;;;;;;23.05;8.60;;;-0.60;99.90;;;;;;5052593;28;20036;-76
2022/01/22 04:29:24;;;;;;;17.50;6.20;;;-0.40;99.90;;;;;;5052482;28;20029;-75
2022/01/22 04:31:50;;;;;;;13.13;4.47;;;-0.30;99.90;;;;;;5052660;28;20111;-75
2022/01/22 04:34:16;;;;;;;14.70;5.30;;;-0.30;99.90;;;;;;5052600;28;20033;-75
2022/01/22 04:36:42;;;;;;;12.57;5.43;;;-0.30;99.90;;;;;;5052041;28;20048;-75
2022/01/22 04:39:09;;;;;;;15.90;5.72;;;-0.30;99.90;;;;;;5052477;28;20471;-75
2022/01/22 04:41:34;;;;;;;13.43;4.68;;;-0.30;99.90;;;;;;5052550;28;20087;-75
2022/01/22 04:44:03;;;;;;;13.10;5.03;;;-0.20;99.90;;;;;;5052374;28;20036;-75
2022/01/22 04:46:50;;;;;;;12.32;3.75;;;-0.20;99.90;;;;;;5052348;28;20035;-75
2022/01/22 04:57:13;;;;;;;13.98;5.00;;;-0.30;99.90;;;;;;5051976;28;20040;-75
2022/01/22 04:59:39;;;;;;;20.42;5.35;;;-0.30;99.90;;;;;;5052293;28;20128;-75
2022/01/22 05:02:05;;;;;;;15.88;5.28;;;-0.30;99.90;;;;;;5052281;28;20120;-75
2022/01/22 05:04:30;;;;;;;13.80;5.60;;;-0.40;99.90;;;;;;5052136;28;20033;-75
2022/01/22 05:06:56;;;;;;;11.82;4.85;;;-0.40;99.90;;;;;;5052292;28;20061;-75
2022/01/22 05:09:22;;;;;;;12.90;5.47;;;-0.50;99.90;;;;;;5056213;28;20033;-75
2022/01/22 05:11:48;;;;;;;18.85;7.68;;;-0.50;99.90;;;;;;5055889;28;20033;-75
2022/01/22 05:14:13;;;;;;;18.92;6.47;;;-0.50;99.90;;;;;;5055989;28;20104;-75
2022/01/22 05:16:39;;;;;;;16.05;3.72;;;-0.50;99.90;;;;;;5055642;28;20106;-75
2022/01/22 05:19:13;;;;;;;10.63;3.92;;;-0.60;99.90;;;;;;5056116;28;20029;-75
2022/01/22 05:21:40;;;;;;;10.50;3.35;;;-0.60;99.90;;;;;;5055570;28;20039;-75
2022/01/22 05:24:11;;;;;;;20.65;9.32;;;-0.70;99.90;;;;;;5055499;28;20417;-75
2022/01/22 05:29:45;;;;;;;80.30;19.95;;;-0.60;99.90;;;;;;5055366;28;20029;-75
2022/01/22 05:37:36;;;;;;;93.13;23.80;;;-0.20;99.90;;;;;;5055447;28;20052;-75
2022/01/22 05:40:03;;;;;;;75.72;20.95;;;0.00;99.90;;;;;;5055470;28;20029;-75
2022/01/22 05:42:29;;;;;;;43.38;13.93;;;0.00;99.90;;;;;;5055276;28;20040;-75
2022/01/22 05:44:54;;;;;;;24.30;8.93;;;0.10;99.90;;;;;;5055762;28;20017;-75
2022/01/22 05:47:24;;;;;;;30.92;8.80;;;0.20;99.90;;;;;;5055564;28;20029;-76
2022/01/22 05:49:50;;;;;;;27.35;8.10;;;0.30;99.90;;;;;;5056310;28;20055;-76
2022/01/22 05:52:24;;;;;;;25.95;7.72;;;0.40;99.90;;;;;;5054867;28;20040;-76
2022/01/22 05:55:08;;;;;;;23.50;11.15;;;0.40;99.90;;;;;;5055972;28;20103;-76
2022/01/22 06:00:20;;;;;;;22.73;10.27;;;0.40;99.90;;;;;;5055568;28;20028;-77
2022/01/22 06:02:46;;;;;;;27.60;7.85;;;0.40;99.90;;;;;;5069942;28;20072;-76
2022/01/22 06:05:12;;;;;;;20.50;7.53;;;0.30;99.90;;;;;;5055855;28;20021;-76
2022/01/22 06:07:37;;;;;;;19.65;9.77;;;0.30;99.90;;;;;;5055272;28;20036;-76
2022/01/22 06:10:15;;;;;;;16.20;6.20;;;0.30;99.90;;;;;;5055624;28;20407;-76
2022/01/22 06:12:46;;;;;;;16.83;5.90;;;0.30;99.90;;;;;;5055468;28;20380;-76
2022/01/22 06:15:14;;;;;;;13.88;5.15;;;0.30;99.90;;;;;;5055634;28;20025;-76
2022/01/22 06:17:40;;;;;;;15.13;6.60;;;0.30;99.90;;;;;;5055101;28;20120;-76
2022/01/22 06:20:07;;;;;;;15.20;5.38;;;0.30;99.90;;;;;;5053579;28;20116;-76
2022/01/22 06:22:33;;;;;;;19.38;7.10;;;0.40;99.90;;;;;;5053877;28;20036;-76
2022/01/22 06:24:59;;;;;;;22.40;8.07;;;0.40;99.90;;;;;;5055414;28;20028;-76
2022/01/22 06:27:25;;;;;;;28.35;9.43;;;0.40;99.90;;;;;;5055236;28;20789;-76
2022/01/22 06:29:51;;;;;;;24.73;9.63;;;0.40;99.90;;;;;;5055421;28;20029;-76
2022/01/22 06:32:17;;;;;;;27.50;10.40;;;0.50;99.90;;;;;;5055296;28;20025;-75
2022/01/22 06:34:42;;;;;;;38.45;11.70;;;0.50;99.90;;;;;;5054895;28;20024;-75
2022/01/22 06:37:08;;;;;;;28.63;10.40;;;0.60;99.90;;;;;;5054445;28;20031;-75
2022/01/22 06:39:51;;;;;;;33.03;11.27;;;0.60;99.90;;;;;;5055419;28;20029;-75
2022/01/22 06:42:17;;;;;;;23.70;8.68;;;0.60;99.90;;;;;;5055322;28;20025;-75
2022/01/22 06:44:43;;;;;;;30.40;10.27;;;0.70;99.90;;;;;;5054677;28;20036;-76
2022/01/22 06:47:09;;;;;;;34.65;12.02;;;0.70;99.50;;;;;;5053233;28;20021;-76
2022/01/22 06:49:34;;;;;;;28.73;10.15;;;0.80;99.00;;;;;;5053542;28;20041;-76
2022/01/22 06:52:00;;;;;;;33.72;10.90;;;0.80;98.40;;;;;;5054380;28;20033;-76
2022/01/22 06:54:26;;;;;;;21.80;10.00;;;0.80;97.70;;;;;;5054427;28;20112;-76
2022/01/22 06:56:52;;;;;;;28.58;10.73;;;0.90;98.40;;;;;;5053661;28;20033;-75
2022/01/22 06:59:18;;;;;;;20.38;8.07;;;0.90;99.90;;;;;;5054486;28;20035;-75
2022/01/22 07:01:45;;;;;;;14.82;6.55;;;0.90;99.90;;;;;;5054609;28;20032;-77
2022/01/22 07:04:12;;;;;;;23.35;8.65;;;0.90;99.90;;;;;;5054591;28;20021;-76
2022/01/22 07:06:38;;;;;;;21.80;7.43;;;0.90;99.90;;;;;;5054612;28;20025;-76
2022/01/22 07:09:04;;;;;;;20.08;8.02;;;0.90;99.90;;;;;;5054432;28;20040;-76
2022/01/22 07:11:29;;;;;;;16.20;6.80;;;1.00;99.90;;;;;;5053791;28;20391;-76
2022/01/22 07:13:55;;;;;;;20.20;7.55;;;0.90;99.90;;;;;;5053808;28;20040;-76
2022/01/22 07:16:21;;;;;;;19.95;8.30;;;0.90;99.90;;;;;;5054604;28;20037;-76
2022/01/22 07:18:47;;;;;;;22.85;9.50;;;1.00;99.60;;;;;;5053187;28;20033;-76
2022/01/22 07:21:19;;;;;;;32.35;11.00;;;1.10;98.50;;;;;;5053067;28;20017;-76
2022/01/22 07:26:11;;;;;;;29.23;11.38;;;1.10;97.40;;;;;;5053751;28;20432;-76
2022/01/22 07:28:39;;;;;;;25.30;9.90;;;1.10;96.90;;;;;;5053619;28;20495;-77
2022/01/22 07:31:05;;;;;;;33.33;13.20;;;1.10;96.40;;;;;;5053062;28;20029;-77
2022/01/22 07:33:31;;;;;;;28.85;12.10;;;1.20;96.40;;;;;;5053664;28;20075;-75
2022/01/22 07:35:57;;;;;;;47.40;18.48;;;1.20;96.40;;;;;;5054149;28;20039;-76
2022/01/22 07:38:23;;;;;;;39.13;15.32;;;1.20;96.50;;;;;;5054064;28;20021;-76
2022/01/22 07:40:49;;;;;;;37.85;15.30;;;1.20;96.60;;;;;;5053643;28;20025;-76
2022/01/22 07:43:16;;;;;;;40.13;14.70;;;1.20;97.50;;;;;;5054308;28;20061;-76
2022/01/22 07:45:42;;;;;;;116.20;40.30;;;1.20;98.10;;;;;;5054136;28;20025;-77
2022/01/22 07:48:08;;;;;;;158.40;53.88;;;1.20;99.90;;;;;;5052805;28;20462;-76
2022/01/22 07:50:34;;;;;;;201.75;71.22;;;1.30;99.70;;;;;;5054051;28;20025;-77
2022/01/22 07:53:01;;;;;;;164.73;62.47;;;1.30;98.90;;;;;;5053554;28;20414;-77
2022/01/22 07:55:28;;;;;;;142.07;61.58;;;1.30;99.10;;;;;;5053392;28;20495;-76
2022/01/22 07:57:54;;;;;;;152.77;64.00;;;1.30;98.80;;;;;;5053821;28;20029;-77
2022/01/22 08:00:20;;;;;;;150.20;61.00;;;1.30;98.70;;;;;;5053597;28;20028;-77
2022/01/22 08:02:46;;;;;;;94.10;45.13;;;1.30;99.00;;;;;;5053596;28;20479;-77
2022/01/22 08:05:12;;;;;;;132.75;48.78;;;1.30;99.70;;;;;;5053215;28;20487;-77
2022/01/22 08:07:41;;;;;;;76.25;31.90;;;1.40;99.90;;;;;;5053424;28;20112;-77
2022/01/22 08:10:10;;;;;;;38.08;17.20;;;1.30;99.90;;;;;;5053614;28;20032;-77
2022/01/22 08:12:37;;;;;;;54.67;24.77;;;1.30;99.90;;;;;;5053711;28;20074;-77
2022/01/22 08:15:08;;;;;;;56.33;24.17;;;1.30;99.90;;;;;;5053562;28;20025;-76
2022/01/22 08:17:34;;;;;;;102.18;41.92;;;1.30;99.90;;;;;;5053211;28;20037;-76
2022/01/22 08:20:00;;;;;;;67.20;25.00;;;1.30;99.90;;;;;;5053092;28;20025;-76
2022/01/22 08:22:26;;;;;;;56.35;22.70;;;1.30;99.90;;;;;;5053750;28;20487;-76
2022/01/22 08:24:54;;;;;;;53.42;20.02;;;1.30;99.90;;;;;;5053135;28;20474;-77
2022/01/22 08:29:49;;;;;;;39.03;16.25;;;1.40;99.90;;;;;;5053453;28;20025;-76
2022/01/22 08:37:28;;;;;;;54.65;23.58;;;1.40;99.90;;;;;;5053021;28;20087;-76
2022/01/22 08:39:53;;;;;;;66.25;27.00;;;1.40;99.90;;;;;;5053332;28;20403;-77
2022/01/22 08:42:21;;;;;;;38.10;15.23;;;1.40;99.90;;;;;;5051738;28;20423;-77
2022/01/22 08:44:47;;;;;;;43.25;16.00;;;1.30;99.90;;;;;;5057070;28;20040;-76
2022/01/22 08:47:14;;;;;;;44.75;18.80;;;1.10;99.90;;;;;;5057191;28;20028;-77
2022/01/22 08:49:40;;;;;;;38.22;14.35;;;0.90;99.90;;;;;;5057734;28;20052;-77
2022/01/22 08:52:14;;;;;;;29.15;10.90;;;0.60;99.90;;;;;;5057226;28;20029;-77
2022/01/22 08:54:41;;;;;;;41.38;20.30;;;0.50;99.90;;;;;;5057056;28;20025;-77
2022/01/22 08:57:07;;;;;;;173.00;63.70;;;0.40;99.90;;;;;;5055821;28;20041;-76
2022/01/22 08:59:33;;;;;;;133.82;48.47;;;0.20;99.90;;;;;;5056416;28;20021;-76
2022/01/22 09:01:59;;;;;;;327.33;127.30;;;0.20;99.90;;;;;;5056988;28;20025;-77
2022/01/22 09:04:25;;;;;;;243.07;97.10;;;0.30;99.90;;;;;;5056667;28;20032;-77
2022/01/22 09:06:51;;;;;;;99.35;38.92;;;0.20;99.90;;;;;;5056717;28;20094;-77
2022/01/22 09:09:17;;;;;;;51.20;21.58;;;0.20;99.90;;;;;;5056019;28;20024;-77
2022/01/22 09:11:45;;;;;;;47.88;19.83;;;0.10;99.90;;;;;;5056155;28;20029;-78
2022/01/22 09:14:14;;;;;;;52.30;22.98;;;0.00;99.90;;;;;;5056598;28;20036;-77
2022/01/22 09:16:41;;;;;;;39.22;18.42;;;0.00;99.90;;;;;;5056189;28;20116;-77
2022/01/22 09:19:10;;;;;;;42.10;17.13;;;0.10;99.90;;;;;;5057000;28;20080;-78
2022/01/22 09:21:39;;;;;;;35.67;15.00;;;0.00;99.90;;;;;;5056714;28;20107;-77
2022/01/22 09:24:05;;;;;;;42.60;21.25;;;0.00;99.90;;;;;;5056556;28;20455;-77
2022/01/22 09:26:31;;;;;;;59.50;21.00;;;0.10;99.90;;;;;;5056626;28;20041;-77
2022/01/22 09:28:59;;;;;;;44.85;19.65;;;0.00;99.90;;;;;;5056725;28;20021;-78
2022/01/22 09:31:27;;;;;;;39.50;17.58;;;0.10;99.90;;;;;;5055320;28;20029;-78
2022/01/22 09:33:56;;;;;;;63.38;25.98;;;0.10;99.90;;;;;;5056432;28;20021;-78
2022/01/22 09:36:22;;;;;;;204.23;94.75;;;0.10;99.90;;;;;;5055700;28;20438;-77
2022/01/22 09:38:49;;;;;;;54.15;26.65;;;0.20;99.90;;;;;;5056271;28;20456;-76
2022/01/22 09:41:16;;;;;;;61.20;27.52;;;0.20;99.90;;;;;;5056047;28;20036;-77
2022/01/22 09:43:41;;;;;;;43.47;23.17;;;0.30;99.90;;;;;;5055932;28;20047;-77
2022/01/22 09:46:08;;;;;;;57.35;26.88;;;0.30;99.90;;;;;;5056296;28;20459;-76
2022/01/22 09:48:38;;;;;;;116.32;44.30;;;0.20;99.90;;;;;;5055648;28;20095;-76
2022/01/22 09:51:04;;;;;;;103.82;40.97;;;0.30;99.90;;;;;;5056055;28;20456;-77
2022/01/22 09:53:30;;;;;;;76.07;33.42;;;0.40;99.90;;;;;;5055631;28;20044;-78
2022/01/22 09:55:56;;;;;;;91.13;34.90;;;0.40;99.90;;;;;;5055981;28;20029;-78
2022/01/22 09:58:22;;;;;;;120.35;39.65;;;0.40;99.90;;;;;;5055857;28;20072;-78
2022/01/22 10:00:47;;;;;;;120.05;42.85;;;0.50;99.90;;;;;;5055789;28;20029;-77
2022/01/22 10:03:17;;;;;;;455.08;150.63;;;0.60;99.90;;;;;;5055404;28;20404;-77
2022/01/22 10:05:43;;;;;;;225.70;78.75;;;0.60;99.90;;;;;;5055662;28;20467;-77
2022/01/22 10:08:19;;;;;;;193.80;64.28;;;0.60;99.90;;;;;;5055470;28;20032;-78
2022/01/22 10:10:45;;;;;;;134.45;46.13;;;0.60;99.90;;;;;;5055886;28;20040;-79
2022/01/22 10:13:11;;;;;;;107.82;45.05;;;0.60;99.90;;;;;;5055578;28;20025;-78
2022/01/22 10:15:39;;;;;;;102.05;43.40;;;0.60;99.90;;;;;;5055653;28;20056;-77
2022/01/22 10:18:06;;;;;;;167.82;60.60;;;0.80;99.90;;;;;;5055125;28;20043;-77
2022/01/22 10:20:38;;;;;;;81.30;33.70;;;1.00;99.90;;;;;;5055583;28;20368;-79
2022/01/22 10:23:25;;;;;;;87.53;37.25;;;1.00;99.90;;;;;;5055021;28;20049;-79
2022/01/22 10:26:00;;;;;;;44.28;19.38;;;1.20;99.90;;;;;;5055547;28;20571;-78
2022/01/22 10:28:29;;;;;;;52.45;22.08;;;1.20;99.90;;;;;;5055393;28;20472;-78
2022/01/22 10:31:17;;;;;;;46.67;23.27;;;1.30;99.90;;;;;;5055180;28;20021;-78
2022/01/22 10:33:43;;;;;;;36.28;14.68;;;1.20;99.90;;;;;;5055084;28;20021;-78
2022/01/22 10:36:21;;;;;;;44.78;19.90;;;1.10;99.90;;;;;;5055253;28;20029;-78
2022/01/22 10:38:52;;;;;;;42.30;20.70;;;1.30;99.90;;;;;;5055219;28;20129;-78
2022/01/22 10:41:31;;;;;;;50.73;23.67;;;1.20;99.90;;;;;;5055269;28;20040;-79
2022/01/22 10:43:59;;;;;;;64.43;30.38;;;1.20;99.90;;;;;;5055514;28;20033;-79
2022/01/22 10:46:42;;;;;;;58.35;25.20;;;1.20;99.90;;;;;;5055043;28;20036;-80
2022/01/22 10:49:15;;;;;;;43.05;18.20;;;1.10;99.90;;;;;;5054881;28;20133;-80
2022/01/22 10:51:56;;;;;;;50.30;21.92;;;1.00;99.90;;;;;;5055110;28;20029;-80
2022/01/22 10:54:24;;;;;;;53.75;25.25;;;1.00;99.90;;;;;;5054699;28;20028;-80
2022/01/22 10:56:51;;;;;;;56.95;26.92;;;0.90;99.90;;;;;;5054562;28;20061;-80
2022/01/22 10:59:20;;;;;;;40.10;19.63;;;1.00;99.90;;;;;;5054721;28;20474;-81
2022/01/22 11:01:47;;;;;;;39.53;17.98;;;1.00;99.90;;;;;;5054899;28;20048;-82
2022/01/22 11:04:15;;;;;;;75.82;34.95;;;1.00;99.90;;;;;;5054735;28;20096;-80
2022/01/22 11:07:02;;;;;;;83.25;38.08;;;1.10;99.90;;;;;;5054308;28;20464;-81
2022/01/22 11:09:30;;;;;;;77.40;35.17;;;1.20;99.90;;;;;;5054620;28;20033;-81
2022/01/22 11:11:57;;;;;;;142.68;56.75;;;1.20;99.90;;;;;;5054453;28;20021;-81
2022/01/22 11:14:23;;;;;;;141.43;61.47;;;1.20;99.90;;;;;;5054142;28;20044;-80
2022/01/22 11:16:52;;;;;;;167.80;62.10;;;1.20;99.90;;;;;;5054450;28;20067;-80
2022/01/22 11:19:22;;;;;;;193.00;69.35;;;1.20;99.90;;;;;;5054819;28;20032;-80
2022/01/22 11:21:51;;;;;;;153.93;54.60;;;1.10;99.90;;;;;;5053338;28;20021;-80
2022/01/22 11:24:20;;;;;;;123.75;42.30;;;1.10;99.90;;;;;;5054088;28;20456;-81
2022/01/22 11:26:50;;;;;;;136.25;51.35;;;1.00;99.90;;;;;;5054353;28;20049;-81
2022/01/22 11:29:17;;;;;;;193.68;65.22;;;1.00;99.90;;;;;;5053004;28;20036;-80
2022/01/22 11:31:48;;;;;;;236.82;93.55;;;1.00;99.90;;;;;;5054083;28;20029;-80
2022/01/22 11:34:20;;;;;;;185.57;69.77;;;1.10;99.90;;;;;;5053933;28;20045;-81
2022/01/22 11:36:54;;;;;;;;;;;1.10;99.90;;;;;;5051994;28;20086;-81
2022/01/22 11:39:23;;;;;;;99.07;41.63;;;1.10;99.90;;;;;;5052264;28;19905;-80
2022/01/22 11:41:55;;;;;;;117.63;49.90;;;1.00;99.90;;;;;;5053247;28;20021;-80
2022/01/22 11:44:28;;;;;;;85.95;42.30;;;1.10;99.90;;;;;;5054227;28;20496;-80
2022/01/22 11:47:14;;;;;;;126.68;55.65;;;1.00;99.90;;;;;;5053133;28;20028;-81
2022/01/22 11:49:40;;;;;;;154.52;66.85;;;1.00;99.90;;;;;;5054251;28;20048;-81
2022/01/22 11:52:12;;;;;;;144.45;68.90;;;1.00;99.90;;;;;;5054173;28;20070;-80
2022/01/22 11:54:49;;;;;;;103.80;50.60;;;1.00;99.90;;;;;;5053737;28;20051;-80
2022/01/22 11:57:16;;;;;;;91.80;48.45;;;1.00;99.90;;;;;;5053452;28;20064;-80
2022/01/22 11:59:46;;;;;;;100.07;47.88;;;1.00;99.90;;;;;;5053266;28;20024;-80
2022/01/22 12:02:16;;;;;;;89.00;41.33;;;1.00;99.90;;;;;;5053488;28;20037;-80
2022/01/22 12:04:41;;;;;;;110.85;49.97;;;1.00;99.90;;;;;;5052560;28;20094;-80
2022/01/22 12:07:07;;;;;;;83.80;40.03;;;1.00;99.90;;;;;;5053976;28;20123;-81
2022/01/22 12:15:15;;;;;;;165.48;82.65;;;1.00;99.90;;;;;;5053787;28;20048;-81
2022/01/22 12:18:00;;;;;;;195.23;104.25;;;1.00;99.90;;;;;;5052364;28;20068;-81
2022/01/22 12:23:09;;;;;;;132.27;63.88;;;0.90;99.90;;;;;;5055805;28;20029;-81
2022/01/22 12:25:35;;;;;;;128.00;60.15;;;0.90;99.90;;;;;;5056905;28;20099;-80
2022/01/22 12:28:03;;;;;;;196.63;85.80;;;0.90;99.90;;;;;;5056968;28;20464;-81
2022/01/22 12:30:36;;;;;;;171.35;65.35;;;1.00;99.90;;;;;;5052458;28;20036;-80
2022/01/22 12:33:05;;;;;;;380.38;123.05;;;1.00;99.90;;;;;;5053599;28;20017;-81
2022/01/22 12:35:39;;;;;;;299.08;100.10;;;1.00;99.90;;;;;;5051987;28;20077;-81
2022/01/22 12:38:44;;;;;;;414.23;138.57;;;1.00;99.90;;;;;;5052850;28;20089;-81
2022/01/22 12:47:06;;;;;;;191.38;76.72;;;1.10;99.90;;;;;;5052356;28;20025;-80
2022/01/22 12:49:34;;;;;;;216.25;90.63;;;1.00;99.90;;;;;;5053369;28;20084;-80
2022/01/22 12:52:04;;;;;;;127.53;53.75;;;1.10;99.90;;;;;;5053130;28;20025;-80
2022/01/22 12:54:44;;;;;;;152.88;68.93;;;1.00;99.90;;;;;;5053457;28;20021;-83
2022/01/22 12:57:12;;;;;;;115.72;52.22;;;1.10;99.90;;;;;;5052909;28;20043;-81
2022/01/22 13:00:04;;;;;;;122.50;54.67;;;1.10;99.90;;;;;;5053199;28;20358;-82
2022/01/22 13:02:41;;;;;;;103.68;47.83;;;1.20;99.90;;;;;;5053361;28;20079;-82
2022/01/22 13:05:08;;;;;;;92.85;41.53;;;1.40;99.90;;;;;;5053474;28;20032;-82
2022/01/22 13:07:51;;;;;;;86.53;38.60;;;1.50;99.90;;;;;;5053416;28;20044;-85
2022/01/22 13:10:17;;;;;;;104.72;42.45;;;1.60;99.90;;;;;;5053515;28;20041;-83
2022/01/22 13:12:45;;;;;;;95.15;37.25;;;1.70;99.90;;;;;;5053109;28;20033;-83
2022/01/22 13:15:16;;;;;;;101.78;42.85;;;1.70;99.90;;;;;;5051386;28;20037;-83
2022/01/22 13:17:50;;;;;;;83.57;36.40;;;1.80;99.90;;;;;;5052813;28;20037;-84
2022/01/22 13:20:24;;;;;;;64.88;31.08;;;1.80;99.90;;;;;;5051811;28;20029;-86
2022/01/22 13:22:50;;;;;;;60.97;27.75;;;1.80;99.90;;;;;;5052004;28;20461;-85
2022/01/22 13:25:17;;;;;;;48.90;23.80;;;1.90;99.90;;;;;;5053095;28;20029;-85
2022/01/22 13:27:57;;;;;;;62.88;31.00;;;1.90;99.90;;;;;;5053196;28;20075;-83
2022/01/22 13:30:31;;;;;;;59.15;28.92;;;1.90;99.90;;;;;;5055318;28;20025;-84
2022/01/22 13:33:05;;;;;;;53.58;25.55;;;1.90;99.90;;;;;;5057240;28;20040;-82
2022/01/22 13:49:33;;;;;;;40.20;18.67;;;2.00;99.90;;;;;;5056436;28;20396;-84
2022/01/22 13:52:11;;;;;;;40.67;19.75;;;2.10;99.90;;;;;;5056332;28;20053;-85
2022/01/22 13:54:40;;;;;;;59.38;29.50;;;2.10;99.90;;;;;;5056472;28;20151;-83
2022/01/22 13:57:09;;;;;;;74.97;32.88;;;2.10;99.90;;;;;;5054658;28;20123;-83
2022/01/22 13:59:44;;;;;;;110.28;42.50;;;2.10;99.90;;;;;;5055056;28;20025;-82
2022/01/22 14:04:59;;;;;;;101.28;44.92;;;2.10;99.90;;;;;;5056313;28;20061;-83
2022/01/22 14:07:36;;;;;;;54.40;27.48;;;2.10;99.90;;;;;;5054859;28;20025;-84
2022/01/22 14:10:13;;;;;;;35.38;18.55;;;2.00;99.90;;;;;;5055903;28;20025;-83
2022/01/22 14:12:45;;;;;;;37.83;18.75;;;2.00;99.90;;;;;;5055922;28;20028;-86
2022/01/22 14:15:26;;;;;;;41.88;20.60;;;1.90;99.90;;;;;;5056024;28;20025;-84
2022/01/22 14:18:21;;;;;;;59.33;29.00;;;1.90;99.90;;;;;;5055821;28;20033;-83
2022/01/22 14:20:55;;;;;;;57.03;28.23;;;1.80;99.90;;;;;;5054695;28;20111;-83
2022/01/22 14:23:24;;;;;;;48.53;27.50;;;1.80;99.90;;;;;;5056093;28;20464;-83
2022/01/22 14:25:58;;;;;;;55.40;25.00;;;1.80;99.90;;;;;;5055834;28;20025;-84
2022/01/22 14:28:50;;;;;;;37.80;19.70;;;1.80;99.90;;;;;;5055350;28;20377;-83
2022/01/22 14:31:49;;;;;;;44.88;22.38;;;1.90;99.90;;;;;;5055378;28;20082;-83
2022/01/22 14:34:31;;;;;;;49.75;24.73;;;2.00;99.90;;;;;;5053376;28;20033;-83
2022/01/22 14:36:58;;;;;;;44.83;23.30;;;2.10;99.90;;;;;;5055389;28;20036;-84
2022/01/22 14:44:51;;;;;;;43.42;23.05;;;2.00;99.90;;;;;;5055451;28;20538;-83
2022/01/22 14:47:20;;;;;;;39.58;18.83;;;2.00;99.90;;;;;;5054244;28;20467;-81
2022/01/22 14:49:51;;;;;;;51.72;24.58;;;2.00;99.90;;;;;;5055516;28;20084;-82
2022/01/22 14:52:22;;;;;;;45.65;22.90;;;2.10;99.90;;;;;;5057548;28;20071;-81
2022/01/22 14:54:51;;;;;;;42.53;20.02;;;2.10;99.90;;;;;;5058659;28;20025;-83
2022/01/22 14:57:22;;;;;;;55.42;27.50;;;2.00;99.90;;;;;;5058726;28;20387;-82
2022/01/22 14:59:48;;;;;;;92.00;39.50;;;2.10;99.90;;;;;;5059798;28;20025;-85